Charlotte, Maine
Current Conditions -  °F | °C
As of 7:15 AM on Wednesday 28 Jan 2015 (Local Time) from KBHB Reporting Station
Overcast Overcast  
Wind Chill:   Ceiling: 1100
Heat Index: 14°   Visibility: 0.5mi
Dew Point: 14°   Wind: 12mph
Humidity: 100%   Direction: 340°NNW
Pressure: 29.7"   Gusts: 24mph
Location:  44.9808°N, 67.2405°W
Report Text: KBHB 281215Z 34010G21KT 1/2SM OVC011 M10/M10 A2970 RMK AO1
Loading
Personal Weather Stations






























Interactive Weather Map New forecast layout! Learn more

10-Day Weather Forecast

Advertisements
Track Severe Weather on mobile